الصفحة الرئيسية
METAR-TAF:

METAR-TAF

مطار :

مطار عين أمناس

إن أميناس, الجزائر

دائرة عرض: 28-03N, خط طول: 009-38E, ارتفاع: 562 متر

مراقبة الطقس الحالي

تاريخ ووقت الإصدار 42 دقيقة قبل الساعة 19:00UTC
ريح 14 عقدة من الشمال/الشمال الشرقي
درجة الحرارة 15°درجة مئوية
الرطوبة 36%
ضغط 1020 hPa
الرؤية 10 كم أو أكثر
غيوم متفرقة على ارتفاع 4000 قدم

METAR: DAUZ 211900Z 02014KT 9999 SCT040 15/00 Q1020

زمن: 20:42 (19:42 UTC)

توقعات

تاريخ ووقت الإصدار 2ساعات و 42 دقيقة قبل الساعة 17:00UTC
التوقعات صالحة من21 الساعة 18 UTC إلى 22 الساعة 18 UTC
ريح 14 عقدة من الشمال
الرؤية 10 كم أو أكثر
غيوم متفرقة على ارتفاع 4000 قدم
أصبح
من 22 الساعة 04 UTC إلى 22 الساعة 06 UTC
ريح 2 عقدةمن اتجاهات متغيرة

TAF: DAUZ 211700Z 2118/2218 36014KT 9999 SCT040 BECMG 2204/2206 VRB02KT

أرصاد الطقس والتوقعات من أكثر من 4000 مطار (تقارير الطقس للمطار METAR والتنبؤ بالطقس بالمطارTAF).

المحطات المتاحة هي النقط الصفراء والحمراء على الخريطة.

حرك المؤشر فوق النقطة لمعرفة اسم المحطة.

ثم انقر لمعرفة أرصاد وتوقعات الطقس.

لتغيير الخارطة: اضغط على الأزرار الخضراء مع رمز الصليب الأسود للتكبير. على الزر الأخضر مع شرطة للتصغير، أو على الأسهم الخضراء للخرائط المجاورة.


METAR-TAF: